WHTO2: S Canadian Riv, Whitefield, OK

Data processed at Fri Jan 05 2018 23:47


All information presented herein is the property of the government of the United States of America and may be revised or deleted at any time without prior notice.
Dissemination of this information without the expressed written consent of the Public Affairs Office, Tulsa District U.S. Army Corps of Engineers is strictly prohibited.
These data are gathered electronically and, as presented, have not undergone any form of quality control. These data are not guaranteed to be valid or correct.
Go to home page.
Go to station list.

Upstream stations:

Downstream station:
Previous Day
Next Day
Current Day
    
SHEF ID:       WHTO2     Canadian River near Whitefield,
STATION TYPE:  

               PRECIP     STAGE  RIV-FLOW  BAT-LOAD
                   in        ft       cfs      volt
              Ccp-Rev   Ccp-Rev   Ccp-Rev   Ccp-Rev
(US/Central)
01/03 00:00      0.00      4.65      5267     12.65
01/03 01:00      0.00      4.23      4172     12.65
01/03 02:00      0.00      3.82      3236     12.57
01/03 03:00      0.00      3.45      2499     12.57
01/03 04:00      0.00      3.13      1909     12.57
01/03 05:00      0.00      2.87      1446     12.49
01/03 06:00      0.00      2.68      1151     12.49
01/03 07:00      0.00      2.53       931     12.49
01/03 08:00      0.00      2.41       777     12.49
01/03 09:00      0.00      2.65      1108     12.57
01/03 10:00      0.00      4.71      5436     12.89
01/03 11:00      0.00      5.84      9118     14.00
01/03 12:00      0.00      5.96      9562     14.24
01/03 13:00      0.00      5.56      8129     14.24
01/03 14:00      0.00      5.05      6462     14.24
01/03 15:00      0.00      4.54      4964     14.16
01/03 16:00      0.00      4.07      3796     14.08
01/03 17:00      0.00      3.64      2864     13.92
01/03 18:00      0.00      3.27      2168     13.44
01/03 19:00      0.00      3.56      2708     13.21
01/03 20:00      0.00      5.07      6526     12.89
01/03 21:00      0.00      5.97      9600     12.73
01/03 22:00      0.00      6.41     11343     12.65
01/03 23:00      0.00      6.64     12325     12.65